sensor_id;sensor_type;location;lat;lon;timestamp;temperature;humidity
1405;DHT22;697;51.114;6.542;2023-06-22T00:00:48;25.50;56.30
1405;DHT22;697;51.114;6.542;2023-06-22T00:03:15;25.50;56.60
1405;DHT22;697;51.114;6.542;2023-06-22T00:05:41;25.40;56.60
1405;DHT22;697;51.114;6.542;2023-06-22T00:08:08;25.40;56.80
1405;DHT22;697;51.114;6.542;2023-06-22T00:10:35;25.40;56.80
1405;DHT22;697;51.114;6.542;2023-06-22T00:13:02;25.30;56.70
1405;DHT22;697;51.114;6.542;2023-06-22T00:15:29;25.30;56.80
1405;DHT22;697;51.114;6.542;2023-06-22T00:17:57;25.30;57.00
1405;DHT22;697;51.114;6.542;2023-06-22T00:20:24;25.30;57.30
1405;DHT22;697;51.114;6.542;2023-06-22T00:22:53;25.20;57.50
1405;DHT22;697;51.114;6.542;2023-06-22T00:25:20;25.10;57.30
1405;DHT22;697;51.114;6.542;2023-06-22T00:27:47;25.10;57.40
1405;DHT22;697;51.114;6.542;2023-06-22T00:30:14;25.10;57.50
1405;DHT22;697;51.114;6.542;2023-06-22T00:32:41;25.10;57.60
1405;DHT22;697;51.114;6.542;2023-06-22T00:35:10;25.10;57.60
1405;DHT22;697;51.114;6.542;2023-06-22T00:37:37;25.10;57.70
1405;DHT22;697;51.114;6.542;2023-06-22T00:40:07;25.10;57.80
1405;DHT22;697;51.114;6.542;2023-06-22T00:42:34;25.10;57.80
1405;DHT22;697;51.114;6.542;2023-06-22T00:45:01;25.10;58.00
1405;DHT22;697;51.114;6.542;2023-06-22T00:47:28;25.10;57.90
1405;DHT22;697;51.114;6.542;2023-06-22T00:49:55;25.00;58.00
1405;DHT22;697;51.114;6.542;2023-06-22T00:52:24;25.00;58.20
1405;DHT22;697;51.114;6.542;2023-06-22T00:54:54;25.00;58.30
1405;DHT22;697;51.114;6.542;2023-06-22T00:57:22;24.90;58.40
1405;DHT22;697;51.114;6.542;2023-06-22T00:59:53;24.90;58.60
1405;DHT22;697;51.114;6.542;2023-06-22T01:02:20;24.90;58.70
1405;DHT22;697;51.114;6.542;2023-06-22T01:04:47;24.90;58.70
1405;DHT22;697;51.114;6.542;2023-06-22T01:07:19;24.90;58.80
1405;DHT22;697;51.114;6.542;2023-06-22T01:09:54;24.80;59.10
1405;DHT22;697;51.114;6.542;2023-06-22T01:12:25;24.80;59.10
1405;DHT22;697;51.114;6.542;2023-06-22T01:14:58;24.80;59.20
1405;DHT22;697;51.114;6.542;2023-06-22T01:17:28;24.70;59.50
1405;DHT22;697;51.114;6.542;2023-06-22T01:19:57;24.70;59.50
1405;DHT22;697;51.114;6.542;2023-06-22T01:22:28;24.70;59.50
1405;DHT22;697;51.114;6.542;2023-06-22T01:25:06;24.70;59.60
1405;DHT22;697;51.114;6.542;2023-06-22T01:27:40;24.70;59.70
1405;DHT22;697;51.114;6.542;2023-06-22T01:30:14;24.60;60.00
1405;DHT22;697;51.114;6.542;2023-06-22T01:32:43;24.60;60.00
1405;DHT22;697;51.114;6.542;2023-06-22T01:35:11;24.60;59.90
1405;DHT22;697;51.114;6.542;2023-06-22T01:37:38;24.60;60.00
1405;DHT22;697;51.114;6.542;2023-06-22T01:40:07;24.50;60.00
1405;DHT22;697;51.114;6.542;2023-06-22T01:42:35;24.50;60.40
1405;DHT22;697;51.114;6.542;2023-06-22T01:45:03;24.40;60.20
1405;DHT22;697;51.114;6.542;2023-06-22T01:47:32;24.40;60.50
1405;DHT22;697;51.114;6.542;2023-06-22T01:50:00;24.40;60.70
1405;DHT22;697;51.114;6.542;2023-06-22T01:52:27;24.30;60.70
1405;DHT22;697;51.114;6.542;2023-06-22T01:54:54;24.30;60.90
1405;DHT22;697;51.114;6.542;2023-06-22T01:57:23;24.30;61.10
1405;DHT22;697;51.114;6.542;2023-06-22T01:59:55;24.20;61.30
1405;DHT22;697;51.114;6.542;2023-06-22T02:02:24;24.20;61.40
1405;DHT22;697;51.114;6.542;2023-06-22T02:04:59;24.20;61.90
1405;DHT22;697;51.114;6.542;2023-06-22T02:07:31;24.10;62.00
1405;DHT22;697;51.114;6.542;2023-06-22T02:09:59;24.10;62.30
1405;DHT22;697;51.114;6.542;2023-06-22T02:12:29;24.10;62.40
1405;DHT22;697;51.114;6.542;2023-06-22T02:14:57;24.00;62.60
1405;DHT22;697;51.114;6.542;2023-06-22T02:17:26;24.00;63.00
1405;DHT22;697;51.114;6.542;2023-06-22T02:19:53;23.90;63.30
1405;DHT22;697;51.114;6.542;2023-06-22T02:22:21;23.90;63.80
1405;DHT22;697;51.114;6.542;2023-06-22T02:24:49;23.90;64.30
1405;DHT22;697;51.114;6.542;2023-06-22T02:27:16;23.80;64.40
1405;DHT22;697;51.114;6.542;2023-06-22T02:29:42;23.80;64.80
1405;DHT22;697;51.114;6.542;2023-06-22T02:32:09;23.80;65.00
1405;DHT22;697;51.114;6.542;2023-06-22T02:34:36;23.80;65.20
1405;DHT22;697;51.114;6.542;2023-06-22T02:37:03;23.80;65.40
1405;DHT22;697;51.114;6.542;2023-06-22T02:39:32;23.80;65.50
1405;DHT22;697;51.114;6.542;2023-06-22T02:41:59;23.80;66.00
1405;DHT22;697;51.114;6.542;2023-06-22T02:44:25;23.80;66.30
1405;DHT22;697;51.114;6.542;2023-06-22T02:46:52;23.80;66.60
1405;DHT22;697;51.114;6.542;2023-06-22T02:49:19;23.80;66.80
1405;DHT22;697;51.114;6.542;2023-06-22T02:51:47;23.80;66.80
1405;DHT22;697;51.114;6.542;2023-06-22T02:54:14;23.80;67.30
1405;DHT22;697;51.114;6.542;2023-06-22T02:56:43;23.80;67.30
1405;DHT22;697;51.114;6.542;2023-06-22T02:59:10;23.80;67.40
1405;DHT22;697;51.114;6.542;2023-06-22T03:01:37;23.80;67.60
1405;DHT22;697;51.114;6.542;2023-06-22T03:04:05;23.80;67.80
1405;DHT22;697;51.114;6.542;2023-06-22T03:06:32;23.80;67.80
1405;DHT22;697;51.114;6.542;2023-06-22T03:09:00;23.80;68.00
1405;DHT22;697;51.114;6.542;2023-06-22T03:11:27;23.80;68.10
1405;DHT22;697;51.114;6.542;2023-06-22T03:13:55;23.80;68.40
1405;DHT22;697;51.114;6.542;2023-06-22T03:16:22;23.80;68.50
1405;DHT22;697;51.114;6.542;2023-06-22T03:18:49;23.80;68.70
1405;DHT22;697;51.114;6.542;2023-06-22T03:21:15;23.80;68.80
1405;DHT22;697;51.114;6.542;2023-06-22T03:23:42;23.80;68.90
1405;DHT22;697;51.114;6.542;2023-06-22T03:26:09;23.80;69.30
1405;DHT22;697;51.114;6.542;2023-06-22T03:28:37;23.80;69.30
1405;DHT22;697;51.114;6.542;2023-06-22T03:31:05;23.80;69.60
1405;DHT22;697;51.114;6.542;2023-06-22T03:33:33;23.80;69.70
1405;DHT22;697;51.114;6.542;2023-06-22T03:36:00;23.80;69.80
1405;DHT22;697;51.114;6.542;2023-06-22T03:38:27;23.80;69.80
1405;DHT22;697;51.114;6.542;2023-06-22T03:40:53;23.80;70.00
1405;DHT22;697;51.114;6.542;2023-06-22T03:43:20;23.80;70.40
1405;DHT22;697;51.114;6.542;2023-06-22T03:45:47;23.90;70.70
1405;DHT22;697;51.114;6.542;2023-06-22T03:48:15;23.90;70.70
1405;DHT22;697;51.114;6.542;2023-06-22T03:50:42;23.90;70.20
1405;DHT22;697;51.114;6.542;2023-06-22T03:53:10;23.90;70.20
1405;DHT22;697;51.114;6.542;2023-06-22T03:55:40;23.90;70.50
1405;DHT22;697;51.114;6.542;2023-06-22T03:58:07;24.00;70.90
1405;DHT22;697;51.114;6.542;2023-06-22T04:00:34;24.00;70.90
1405;DHT22;697;51.114;6.542;2023-06-22T04:03:01;24.00;70.50
1405;DHT22;697;51.114;6.542;2023-06-22T04:05:30;24.00;70.30
1405;DHT22;697;51.114;6.542;2023-06-22T04:07:57;24.00;70.80
1405;DHT22;697;51.114;6.542;2023-06-22T04:10:23;24.10;70.90
1405;DHT22;697;51.114;6.542;2023-06-22T04:12:50;24.00;71.10
1405;DHT22;697;51.114;6.542;2023-06-22T04:15:17;24.00;71.20
1405;DHT22;697;51.114;6.542;2023-06-22T04:17:44;24.10;71.50
1405;DHT22;697;51.114;6.542;2023-06-22T04:20:11;24.00;71.70
1405;DHT22;697;51.114;6.542;2023-06-22T04:22:39;24.10;71.90
1405;DHT22;697;51.114;6.542;2023-06-22T04:25:06;24.00;72.00
1405;DHT22;697;51.114;6.542;2023-06-22T04:27:34;24.00;71.60
1405;DHT22;697;51.114;6.542;2023-06-22T04:30:03;24.00;72.20
1405;DHT22;697;51.114;6.542;2023-06-22T04:32:30;24.00;72.30
1405;DHT22;697;51.114;6.542;2023-06-22T04:34:57;24.00;72.50
1405;DHT22;697;51.114;6.542;2023-06-22T04:37:25;23.90;72.80
1405;DHT22;697;51.114;6.542;2023-06-22T04:39:54;23.90;73.60
1405;DHT22;697;51.114;6.542;2023-06-22T04:42:21;23.90;73.90
1405;DHT22;697;51.114;6.542;2023-06-22T04:44:47;23.90;74.70
1405;DHT22;697;51.114;6.542;2023-06-22T04:47:14;23.90;75.60
1405;DHT22;697;51.114;6.542;2023-06-22T04:49:41;23.80;76.80
1405;DHT22;697;51.114;6.542;2023-06-22T04:52:11;23.70;76.90
1405;DHT22;697;51.114;6.542;2023-06-22T04:54:39;23.70;77.50
1405;DHT22;697;51.114;6.542;2023-06-22T04:57:14;23.70;77.90
1405;DHT22;697;51.114;6.542;2023-06-22T04:59:41;23.80;78.30
1405;DHT22;697;51.114;6.542;2023-06-22T05:02:08;23.80;78.00
1405;DHT22;697;51.114;6.542;2023-06-22T05:04:35;23.80;77.70
1405;DHT22;697;51.114;6.542;2023-06-22T05:07:04;23.90;77.80
1405;DHT22;697;51.114;6.542;2023-06-22T05:09:31;23.90;77.50
1405;DHT22;697;51.114;6.542;2023-06-22T05:11:59;23.90;77.10
1405;DHT22;697;51.114;6.542;2023-06-22T05:14:29;23.90;77.20
1405;DHT22;697;51.114;6.542;2023-06-22T05:16:56;24.00;77.30
1405;DHT22;697;51.114;6.542;2023-06-22T05:19:24;24.00;77.10
1405;DHT22;697;51.114;6.542;2023-06-22T05:21:59;24.00;77.10
1405;DHT22;697;51.114;6.542;2023-06-22T05:24:25;24.00;77.10
1405;DHT22;697;51.114;6.542;2023-06-22T05:26:52;24.10;77.00
1405;DHT22;697;51.114;6.542;2023-06-22T05:29:19;24.10;77.10
1405;DHT22;697;51.114;6.542;2023-06-22T05:31:48;24.10;76.80
1405;DHT22;697;51.114;6.542;2023-06-22T05:34:15;24.10;77.10
1405;DHT22;697;51.114;6.542;2023-06-22T05:36:42;24.10;77.30
1405;DHT22;697;51.114;6.542;2023-06-22T05:39:13;24.10;77.60
1405;DHT22;697;51.114;6.542;2023-06-22T05:41:41;24.10;78.00
1405;DHT22;697;51.114;6.542;2023-06-22T05:44:08;24.10;78.10
1405;DHT22;697;51.114;6.542;2023-06-22T05:46:35;24.10;78.20
1405;DHT22;697;51.114;6.542;2023-06-22T05:49:04;24.10;78.00
1405;DHT22;697;51.114;6.542;2023-06-22T05:51:30;24.10;78.20
1405;DHT22;697;51.114;6.542;2023-06-22T05:53:57;24.20;78.00
1405;DHT22;697;51.114;6.542;2023-06-22T05:56:24;24.20;78.00
1405;DHT22;697;51.114;6.542;2023-06-22T05:58:51;24.20;77.80
1405;DHT22;697;51.114;6.542;2023-06-22T06:01:18;24.30;78.20
1405;DHT22;697;51.114;6.542;2023-06-22T06:03:44;24.30;77.90
1405;DHT22;697;51.114;6.542;2023-06-22T06:06:12;24.30;77.60
1405;DHT22;697;51.114;6.542;2023-06-22T06:08:39;24.30;77.70
1405;DHT22;697;51.114;6.542;2023-06-22T06:11:06;24.40;77.70
1405;DHT22;697;51.114;6.542;2023-06-22T06:13:33;24.40;77.20
1405;DHT22;697;51.114;6.542;2023-06-22T06:16:00;24.40;77.50
1405;DHT22;697;51.114;6.542;2023-06-22T06:18:26;24.40;77.80
1405;DHT22;697;51.114;6.542;2023-06-22T06:20:53;24.40;77.60
1405;DHT22;697;51.114;6.542;2023-06-22T06:23:21;24.40;77.80
1405;DHT22;697;51.114;6.542;2023-06-22T06:25:48;24.40;78.10
1405;DHT22;697;51.114;6.542;2023-06-22T06:28:15;24.40;78.20
1405;DHT22;697;51.114;6.542;2023-06-22T06:30:42;24.40;78.10
1405;DHT22;697;51.114;6.542;2023-06-22T06:33:09;24.30;78.30
1405;DHT22;697;51.114;6.542;2023-06-22T06:35:35;24.30;78.40
1405;DHT22;697;51.114;6.542;2023-06-22T06:38:03;24.30;78.40
1405;DHT22;697;51.114;6.542;2023-06-22T06:40:31;24.20;78.60
1405;DHT22;697;51.114;6.542;2023-06-22T06:42:58;24.20;79.00
1405;DHT22;697;51.114;6.542;2023-06-22T06:45:26;24.20;79.60
1405;DHT22;697;51.114;6.542;2023-06-22T06:47:54;24.10;80.20
1405;DHT22;697;51.114;6.542;2023-06-22T06:50:21;24.10;82.20
1405;DHT22;697;51.114;6.542;2023-06-22T06:52:48;24.10;82.70
1405;DHT22;697;51.114;6.542;2023-06-22T06:55:16;24.10;83.70
1405;DHT22;697;51.114;6.542;2023-06-22T06:57:45;24.10;84.50
1405;DHT22;697;51.114;6.542;2023-06-22T07:00:14;24.10;84.70
1405;DHT22;697;51.114;6.542;2023-06-22T07:02:43;24.20;85.20
1405;DHT22;697;51.114;6.542;2023-06-22T07:05:10;24.30;86.10
1405;DHT22;697;51.114;6.542;2023-06-22T07:07:37;24.50;86.70
1405;DHT22;697;51.114;6.542;2023-06-22T07:10:05;24.60;86.30
1405;DHT22;697;51.114;6.542;2023-06-22T07:12:32;24.70;85.70
1405;DHT22;697;51.114;6.542;2023-06-22T07:15:03;24.90;84.80
1405;DHT22;697;51.114;6.542;2023-06-22T07:17:30;25.00;84.10
1405;DHT22;697;51.114;6.542;2023-06-22T07:19:57;25.20;84.30
1405;DHT22;697;51.114;6.542;2023-06-22T07:22:23;25.40;84.00
1405;DHT22;697;51.114;6.542;2023-06-22T07:24:50;25.50;83.60
1405;DHT22;697;51.114;6.542;2023-06-22T07:27:17;25.70;83.20
1405;DHT22;697;51.114;6.542;2023-06-22T07:29:45;25.90;83.00
1405;DHT22;697;51.114;6.542;2023-06-22T07:32:13;26.20;81.40
1405;DHT22;697;51.114;6.542;2023-06-22T07:34:40;26.50;80.60
1405;DHT22;697;51.114;6.542;2023-06-22T07:37:07;26.70;79.80
1405;DHT22;697;51.114;6.542;2023-06-22T07:39:34;26.80;78.20
1405;DHT22;697;51.114;6.542;2023-06-22T07:42:00;26.90;76.70
1405;DHT22;697;51.114;6.542;2023-06-22T07:44:27;27.10;77.30
1405;DHT22;697;51.114;6.542;2023-06-22T07:46:54;27.20;75.80
1405;DHT22;697;51.114;6.542;2023-06-22T07:49:22;27.40;74.90
1405;DHT22;697;51.114;6.542;2023-06-22T07:51:49;27.50;74.70
1405;DHT22;697;51.114;6.542;2023-06-22T07:54:16;27.70;74.00
1405;DHT22;697;51.114;6.542;2023-06-22T07:56:42;27.80;72.60
1405;DHT22;697;51.114;6.542;2023-06-22T07:59:09;28.00;70.80
1405;DHT22;697;51.114;6.542;2023-06-22T08:01:36;28.20;69.80
1405;DHT22;697;51.114;6.542;2023-06-22T08:04:03;28.50;68.60
1405;DHT22;697;51.114;6.542;2023-06-22T08:06:32;28.60;67.60
1405;DHT22;697;51.114;6.542;2023-06-22T08:08:59;28.70;65.00
1405;DHT22;697;51.114;6.542;2023-06-22T08:11:26;28.80;65.20
1405;DHT22;697;51.114;6.542;2023-06-22T08:13:53;28.90;64.60
1405;DHT22;697;51.114;6.542;2023-06-22T08:16:21;29.10;63.90
1405;DHT22;697;51.114;6.542;2023-06-22T08:18:48;29.40;64.30
1405;DHT22;697;51.114;6.542;2023-06-22T08:21:14;29.60;64.00
1405;DHT22;697;51.114;6.542;2023-06-22T08:23:43;29.90;63.40
1405;DHT22;697;51.114;6.542;2023-06-22T08:26:09;29.90;61.30
1405;DHT22;697;51.114;6.542;2023-06-22T08:28:36;30.00;60.10
1405;DHT22;697;51.114;6.542;2023-06-22T08:31:03;30.10;60.20
1405;DHT22;697;51.114;6.542;2023-06-22T08:33:30;30.10;59.70
1405;DHT22;697;51.114;6.542;2023-06-22T08:35:58;30.30;59.80
1405;DHT22;697;51.114;6.542;2023-06-22T08:38:25;30.50;59.20
1405;DHT22;697;51.114;6.542;2023-06-22T08:40:53;30.70;58.30
1405;DHT22;697;51.114;6.542;2023-06-22T08:43:20;30.80;57.40
1405;DHT22;697;51.114;6.542;2023-06-22T08:45:46;30.90;57.10
1405;DHT22;697;51.114;6.542;2023-06-22T08:48:13;31.10;57.10
1405;DHT22;697;51.114;6.542;2023-06-22T08:50:40;31.30;56.80
1405;DHT22;697;51.114;6.542;2023-06-22T08:53:07;31.50;56.70
1405;DHT22;697;51.114;6.542;2023-06-22T08:55:34;31.70;56.00
1405;DHT22;697;51.114;6.542;2023-06-22T08:58:02;32.00;55.60
1405;DHT22;697;51.114;6.542;2023-06-22T09:00:30;32.30;54.90
1405;DHT22;697;51.114;6.542;2023-06-22T09:03:00;32.50;54.00
1405;DHT22;697;51.114;6.542;2023-06-22T09:05:27;32.90;52.40
1405;DHT22;697;51.114;6.542;2023-06-22T09:07:54;33.10;51.00
1405;DHT22;697;51.114;6.542;2023-06-22T09:10:21;33.40;50.60
1405;DHT22;697;51.114;6.542;2023-06-22T09:12:48;33.60;50.10
1405;DHT22;697;51.114;6.542;2023-06-22T09:15:16;33.60;49.10
1405;DHT22;697;51.114;6.542;2023-06-22T09:17:43;33.70;48.60
1405;DHT22;697;51.114;6.542;2023-06-22T09:20:12;33.80;48.50
1405;DHT22;697;51.114;6.542;2023-06-22T09:22:38;34.00;48.50
1405;DHT22;697;51.114;6.542;2023-06-22T09:25:06;34.20;48.30
1405;DHT22;697;51.114;6.542;2023-06-22T09:27:33;34.30;48.10
1405;DHT22;697;51.114;6.542;2023-06-22T09:30:00;34.40;46.90
1405;DHT22;697;51.114;6.542;2023-06-22T09:32:30;34.60;46.50
1405;DHT22;697;51.114;6.542;2023-06-22T09:34:57;34.70;46.30
1405;DHT22;697;51.114;6.542;2023-06-22T09:37:23;34.90;46.00
1405;DHT22;697;51.114;6.542;2023-06-22T09:39:50;35.00;45.40
1405;DHT22;697;51.114;6.542;2023-06-22T09:42:17;35.20;45.20
1405;DHT22;697;51.114;6.542;2023-06-22T09:44:44;35.50;44.60
1405;DHT22;697;51.114;6.542;2023-06-22T09:47:10;35.70;44.00
1405;DHT22;697;51.114;6.542;2023-06-22T09:49:39;35.90;43.00
1405;DHT22;697;51.114;6.542;2023-06-22T09:52:06;36.20;42.20
1405;DHT22;697;51.114;6.542;2023-06-22T09:54:33;36.30;41.90
1405;DHT22;697;51.114;6.542;2023-06-22T09:57:00;36.40;41.60
1405;DHT22;697;51.114;6.542;2023-06-22T09:59:27;36.40;40.80
1405;DHT22;697;51.114;6.542;2023-06-22T10:01:53;36.30;40.00
1405;DHT22;697;51.114;6.542;2023-06-22T10:04:20;36.20;40.20
1405;DHT22;697;51.114;6.542;2023-06-22T10:06:48;35.90;40.80
1405;DHT22;697;51.114;6.542;2023-06-22T10:09:15;35.60;41.30
1405;DHT22;697;51.114;6.542;2023-06-22T10:11:42;35.20;42.10
1405;DHT22;697;51.114;6.542;2023-06-22T10:14:09;34.90;43.40
1405;DHT22;697;51.114;6.542;2023-06-22T10:16:36;34.50;44.30
1405;DHT22;697;51.114;6.542;2023-06-22T10:19:03;34.10;45.20
1405;DHT22;697;51.114;6.542;2023-06-22T10:21:30;33.70;46.00
1405;DHT22;697;51.114;6.542;2023-06-22T10:23:58;33.40;46.80
1405;DHT22;697;51.114;6.542;2023-06-22T10:26:31;33.00;48.00
1405;DHT22;697;51.114;6.542;2023-06-22T10:28:58;32.70;49.30
1405;DHT22;697;51.114;6.542;2023-06-22T10:31:25;32.30;50.20
1405;DHT22;697;51.114;6.542;2023-06-22T10:33:53;31.90;51.00
1405;DHT22;697;51.114;6.542;2023-06-22T10:36:19;31.60;51.90
1405;DHT22;697;51.114;6.542;2023-06-22T10:38:46;31.30;53.20
1405;DHT22;697;51.114;6.542;2023-06-22T10:41:15;31.10;55.30
1405;DHT22;697;51.114;6.542;2023-06-22T10:43:42;30.80;57.00
1405;DHT22;697;51.114;6.542;2023-06-22T10:46:10;30.50;58.20
1405;DHT22;697;51.114;6.542;2023-06-22T10:48:37;30.20;59.30
1405;DHT22;697;51.114;6.542;2023-06-22T10:51:04;29.90;60.80
1405;DHT22;697;51.114;6.542;2023-06-22T10:53:31;29.70;63.30
1405;DHT22;697;51.114;6.542;2023-06-22T10:55:58;29.40;65.30
1405;DHT22;697;51.114;6.542;2023-06-22T10:58:26;29.20;67.20
1405;DHT22;697;51.114;6.542;2023-06-22T11:00:53;29.00;69.30
1405;DHT22;697;51.114;6.542;2023-06-22T11:03:20;28.70;70.10
1405;DHT22;697;51.114;6.542;2023-06-22T11:05:46;28.50;71.10
1405;DHT22;697;51.114;6.542;2023-06-22T11:08:13;28.40;72.40
1405;DHT22;697;51.114;6.542;2023-06-22T11:10:42;28.20;73.60
1405;DHT22;697;51.114;6.542;2023-06-22T11:13:09;28.10;75.30
1405;DHT22;697;51.114;6.542;2023-06-22T11:15:38;28.00;76.10
1405;DHT22;697;51.114;6.542;2023-06-22T11:18:05;27.90;76.80
1405;DHT22;697;51.114;6.542;2023-06-22T11:20:33;27.80;77.30
1405;DHT22;697;51.114;6.542;2023-06-22T11:23:04;27.80;78.10
1405;DHT22;697;51.114;6.542;2023-06-22T11:25:31;27.70;79.30
1405;DHT22;697;51.114;6.542;2023-06-22T11:28:01;27.60;80.90
1405;DHT22;697;51.114;6.542;2023-06-22T11:30:27;27.50;80.00
1405;DHT22;697;51.114;6.542;2023-06-22T11:32:56;27.50;80.70
1405;DHT22;697;51.114;6.542;2023-06-22T11:35:24;27.40;81.10
1405;DHT22;697;51.114;6.542;2023-06-22T11:37:50;27.40;82.00
1405;DHT22;697;51.114;6.542;2023-06-22T11:40:17;27.40;82.50
1405;DHT22;697;51.114;6.542;2023-06-22T11:42:44;27.40;83.40
1405;DHT22;697;51.114;6.542;2023-06-22T11:45:12;27.40;84.30
1405;DHT22;697;51.114;6.542;2023-06-22T11:47:39;27.50;84.50
1405;DHT22;697;51.114;6.542;2023-06-22T11:50:08;27.60;83.70
1405;DHT22;697;51.114;6.542;2023-06-22T11:52:35;27.80;83.30
1405;DHT22;697;51.114;6.542;2023-06-22T11:55:03;28.10;83.00
1405;DHT22;697;51.114;6.542;2023-06-22T11:57:32;28.30;82.00
1405;DHT22;697;51.114;6.542;2023-06-22T11:59:59;28.70;80.60
1405;DHT22;697;51.114;6.542;2023-06-22T12:02:26;29.20;79.30
1405;DHT22;697;51.114;6.542;2023-06-22T12:04:52;29.50;76.80
1405;DHT22;697;51.114;6.542;2023-06-22T12:07:23;29.80;75.50
1405;DHT22;697;51.114;6.542;2023-06-22T12:09:49;30.00;74.20
1405;DHT22;697;51.114;6.542;2023-06-22T12:12:16;30.40;73.50
1405;DHT22;697;51.114;6.542;2023-06-22T12:14:43;31.20;72.10
1405;DHT22;697;51.114;6.542;2023-06-22T12:17:10;31.90;68.00
1405;DHT22;697;51.114;6.542;2023-06-22T12:19:37;32.10;64.40
1405;DHT22;697;51.114;6.542;2023-06-22T12:22:04;32.00;63.90
1405;DHT22;697;51.114;6.542;2023-06-22T12:24:32;31.70;63.50
1405;DHT22;697;51.114;6.542;2023-06-22T12:26:59;31.50;64.40
1405;DHT22;697;51.114;6.542;2023-06-22T12:29:27;31.40;65.20
1405;DHT22;697;51.114;6.542;2023-06-22T12:31:54;31.30;65.30
1405;DHT22;697;51.114;6.542;2023-06-22T12:34:21;31.50;66.10
1405;DHT22;697;51.114;6.542;2023-06-22T12:36:48;31.60;65.80
1405;DHT22;697;51.114;6.542;2023-06-22T12:39:15;31.60;65.50
1405;DHT22;697;51.114;6.542;2023-06-22T12:41:43;31.60;65.40
1405;DHT22;697;51.114;6.542;2023-06-22T12:44:10;31.60;65.40
1405;DHT22;697;51.114;6.542;2023-06-22T12:46:36;31.60;65.20
1405;DHT22;697;51.114;6.542;2023-06-22T12:49:04;31.60;65.10
1405;DHT22;697;51.114;6.542;2023-06-22T12:51:32;31.50;65.00
1405;DHT22;697;51.114;6.542;2023-06-22T12:53:59;31.60;65.20
1405;DHT22;697;51.114;6.542;2023-06-22T12:56:26;31.90;65.10
1405;DHT22;697;51.114;6.542;2023-06-22T12:58:54;32.10;63.80
1405;DHT22;697;51.114;6.542;2023-06-22T13:01:21;32.10;62.70
1405;DHT22;697;51.114;6.542;2023-06-22T13:03:48;32.00;62.20
1405;DHT22;697;51.114;6.542;2023-06-22T13:06:15;32.00;61.90
1405;DHT22;697;51.114;6.542;2023-06-22T13:08:42;32.00;62.40
1405;DHT22;697;51.114;6.542;2023-06-22T13:11:08;32.10;61.70
1405;DHT22;697;51.114;6.542;2023-06-22T13:13:35;32.10;61.30
1405;DHT22;697;51.114;6.542;2023-06-22T13:16:04;32.00;61.20
1405;DHT22;697;51.114;6.542;2023-06-22T13:18:30;31.90;61.40
1405;DHT22;697;51.114;6.542;2023-06-22T13:20:58;31.90;61.60
1405;DHT22;697;51.114;6.542;2023-06-22T13:23:25;31.80;62.10
1405;DHT22;697;51.114;6.542;2023-06-22T13:25:52;31.80;62.30
1405;DHT22;697;51.114;6.542;2023-06-22T13:28:19;31.80;62.00
1405;DHT22;697;51.114;6.542;2023-06-22T13:30:47;31.90;61.90
1405;DHT22;697;51.114;6.542;2023-06-22T13:33:15;31.90;61.70
1405;DHT22;697;51.114;6.542;2023-06-22T13:35:42;31.80;61.70
1405;DHT22;697;51.114;6.542;2023-06-22T13:38:09;31.70;62.30
1405;DHT22;697;51.114;6.542;2023-06-22T13:40:36;31.50;62.30
1405;DHT22;697;51.114;6.542;2023-06-22T13:43:04;31.30;63.20
1405;DHT22;697;51.114;6.542;2023-06-22T13:45:31;31.10;63.80
1405;DHT22;697;51.114;6.542;2023-06-22T13:47:58;30.90;64.60
1405;DHT22;697;51.114;6.542;2023-06-22T13:50:26;30.70;64.60
1405;DHT22;697;51.114;6.542;2023-06-22T13:52:54;30.40;65.00
1405;DHT22;697;51.114;6.542;2023-06-22T13:55:22;30.10;65.90
1405;DHT22;697;51.114;6.542;2023-06-22T13:57:48;29.90;67.10
1405;DHT22;697;51.114;6.542;2023-06-22T14:00:17;29.70;68.30
1405;DHT22;697;51.114;6.542;2023-06-22T14:02:44;29.60;69.50
1405;DHT22;697;51.114;6.542;2023-06-22T14:05:11;29.50;70.30
1405;DHT22;697;51.114;6.542;2023-06-22T14:07:39;29.40;70.80
1405;DHT22;697;51.114;6.542;2023-06-22T14:10:06;29.20;71.70
1405;DHT22;697;51.114;6.542;2023-06-22T14:12:33;29.20;72.10
1405;DHT22;697;51.114;6.542;2023-06-22T14:15:00;29.10;72.60
1405;DHT22;697;51.114;6.542;2023-06-22T14:17:27;29.10;72.70
1405;DHT22;697;51.114;6.542;2023-06-22T14:19:53;29.10;73.10
1405;DHT22;697;51.114;6.542;2023-06-22T14:22:21;29.00;73.00
1405;DHT22;697;51.114;6.542;2023-06-22T14:24:49;28.90;73.80
1405;DHT22;697;51.114;6.542;2023-06-22T14:27:16;28.80;74.50
1405;DHT22;697;51.114;6.542;2023-06-22T14:29:43;28.70;74.40
1405;DHT22;697;51.114;6.542;2023-06-22T14:32:10;28.60;74.80
1405;DHT22;697;51.114;6.542;2023-06-22T14:34:37;28.50;75.50
1405;DHT22;697;51.114;6.542;2023-06-22T14:37:05;28.30;75.60
1405;DHT22;697;51.114;6.542;2023-06-22T14:39:32;28.30;76.00
1405;DHT22;697;51.114;6.542;2023-06-22T14:42:00;28.20;76.70
1405;DHT22;697;51.114;6.542;2023-06-22T14:44:28;28.10;77.60
1405;DHT22;697;51.114;6.542;2023-06-22T14:46:55;28.00;77.70
1405;DHT22;697;51.114;6.542;2023-06-22T14:49:22;27.90;78.20
1405;DHT22;697;51.114;6.542;2023-06-22T14:51:49;27.80;78.60
1405;DHT22;697;51.114;6.542;2023-06-22T14:54:16;27.70;79.00
1405;DHT22;697;51.114;6.542;2023-06-22T14:56:43;27.60;79.50
1405;DHT22;697;51.114;6.542;2023-06-22T14:59:12;27.60;80.10
1405;DHT22;697;51.114;6.542;2023-06-22T15:01:38;27.50;80.40
1405;DHT22;697;51.114;6.542;2023-06-22T15:04:05;27.40;80.70
1405;DHT22;697;51.114;6.542;2023-06-22T15:06:32;27.40;81.40
1405;DHT22;697;51.114;6.542;2023-06-22T15:08:59;27.30;81.30
1405;DHT22;697;51.114;6.542;2023-06-22T15:11:26;27.20;82.30
1405;DHT22;697;51.114;6.542;2023-06-22T15:13:53;27.10;82.40
1405;DHT22;697;51.114;6.542;2023-06-22T15:16:21;27.10;83.10
1405;DHT22;697;51.114;6.542;2023-06-22T15:18:49;26.90;83.00
1405;DHT22;697;51.114;6.542;2023-06-22T15:21:16;26.90;83.30
1405;DHT22;697;51.114;6.542;2023-06-22T15:23:42;26.80;84.00
1405;DHT22;697;51.114;6.542;2023-06-22T15:26:09;26.70;84.40
1405;DHT22;697;51.114;6.542;2023-06-22T15:28:36;26.60;84.50
1405;DHT22;697;51.114;6.542;2023-06-22T15:31:03;26.60;84.90
1405;DHT22;697;51.114;6.542;2023-06-22T15:33:32;26.50;85.20
1405;DHT22;697;51.114;6.542;2023-06-22T15:35:59;26.40;85.60
1405;DHT22;697;51.114;6.542;2023-06-22T15:38:29;26.30;86.00
1405;DHT22;697;51.114;6.542;2023-06-22T15:40:56;26.30;86.50
1405;DHT22;697;51.114;6.542;2023-06-22T15:43:22;26.20;87.40
1405;DHT22;697;51.114;6.542;2023-06-22T15:45:49;26.10;88.20
1405;DHT22;697;51.114;6.542;2023-06-22T15:48:19;26.00;89.00
1405;DHT22;697;51.114;6.542;2023-06-22T15:50:47;25.90;89.60
1405;DHT22;697;51.114;6.542;2023-06-22T15:53:14;25.90;90.10
1405;DHT22;697;51.114;6.542;2023-06-22T15:55:41;25.80;90.20
1405;DHT22;697;51.114;6.542;2023-06-22T15:58:07;25.70;90.30
1405;DHT22;697;51.114;6.542;2023-06-22T16:00:35;25.70;90.60
1405;DHT22;697;51.114;6.542;2023-06-22T16:03:02;25.60;90.90
1405;DHT22;697;51.114;6.542;2023-06-22T16:05:29;25.60;91.20
1405;DHT22;697;51.114;6.542;2023-06-22T16:07:57;25.50;91.50
1405;DHT22;697;51.114;6.542;2023-06-22T16:10:24;25.40;91.70
1405;DHT22;697;51.114;6.542;2023-06-22T16:12:51;25.40;92.10
1405;DHT22;697;51.114;6.542;2023-06-22T16:15:18;25.30;92.40
1405;DHT22;697;51.114;6.542;2023-06-22T16:17:44;25.30;92.60